Time;durP1;ratioP1;P1;durP2;ratioP2;P2;SDS_P1;SDS_P2;PMS_P1;PMS_P2;Temp;Humidity;BMP_temperature;BMP_pressure;BME280_temperature;BME280_humidity;BME280_pressure;Samples;Min_cycle;Max_cycle;Signal;HPM_P1;HPM_P2
2022/01/05 08:15:35;;;;;;;57.63;33.95;;;;;;;7.61;60.99;94072.25;2162805;54;20388;-73
2022/01/05 08:17:39;;;;;;;54.88;32.17;;;;;;;7.49;60.43;94067.31;2163314;47;20044;-72
2022/01/05 08:19:42;;;;;;;;;;;;;;;7.56;60.96;94070.13;2163099;47;20532;-72
2022/01/05 08:21:44;;;;;;;53.10;29.48;;;;;;;7.64;61.00;94064.94;2163968;39;20377;-73
2022/01/05 08:23:46;;;;;;;37.72;23.50;;;;;;;7.84;60.50;94072.53;2164193;39;20445;-72
2022/01/05 08:25:49;;;;;;;39.85;22.55;;;;;;;7.90;59.17;94059.66;2163314;54;20042;-73
2022/01/05 08:27:51;;;;;;;30.38;19.48;;;;;;;7.76;59.16;94057.66;2164512;39;20426;-74
2022/01/05 08:29:53;;;;;;;27.08;17.27;;;;;;;7.56;59.88;94063.13;2163421;47;20082;-73
2022/01/05 08:31:55;;;;;;;28.25;16.90;;;;;;;7.54;60.00;94065.06;2163655;47;20035;-71
2022/01/05 08:33:59;;;;;;;28.50;15.05;;;;;;;7.56;60.05;94054.50;2163454;54;20038;-74
2022/01/05 08:36:02;;;;;;;31.23;18.50;;;;;;;7.38;59.75;94058.00;2163703;47;20030;-72
2022/01/05 08:38:04;;;;;;;29.40;17.47;;;;;;;7.33;60.25;94064.63;2163832;47;20037;-73
2022/01/05 08:40:07;;;;;;;33.78;18.52;;;;;;;7.28;60.09;94053.88;2163581;47;20074;-73
2022/01/05 08:42:09;;;;;;;38.97;20.10;;;;;;;7.33;60.42;94065.44;2163914;47;20587;-73
2022/01/05 08:44:11;;;;;;;36.22;22.05;;;;;;;7.22;60.65;94055.28;2163326;47;20038;-72
2022/01/05 08:46:13;;;;;;;47.50;21.38;;;;;;;7.38;60.72;94068.41;2163659;47;20034;-72
2022/01/05 08:48:16;;;;;;;35.17;21.00;;;;;;;7.66;60.09;94054.34;2164068;46;20049;-72
2022/01/05 08:50:24;;;;;;;44.33;22.27;;;;;;;7.62;59.60;94053.88;2163969;46;20103;-74
2022/01/05 08:52:26;;;;;;;36.30;20.42;;;;;;;7.90;59.38;94061.47;2163935;47;20038;-71
2022/01/05 08:54:28;;;;;;;34.50;19.48;;;;;;;7.95;58.37;94049.56;2163473;47;20035;-74
2022/01/05 08:56:30;;;;;;;26.88;17.20;;;;;;;7.88;58.59;94060.81;2163921;47;20038;-71
2022/01/05 08:58:32;;;;;;;37.00;18.35;;;;;;;7.90;58.58;94056.25;2163915;47;20034;-72
2022/01/05 09:00:35;;;;;;;34.05;17.80;;;;;;;7.66;59.14;94054.34;2163677;47;20045;-71
2022/01/05 09:02:37;;;;;;;31.40;17.50;;;;;;;7.87;59.39;94048.72;2163917;47;20034;-74
2022/01/05 09:04:40;;;;;;;34.10;17.50;;;;;;;7.85;59.00;94041.09;2163187;54;20113;-72
2022/01/05 09:06:42;;;;;;;28.92;18.15;;;;;;;8.03;58.85;94047.97;2163973;39;20505;-73
2022/01/05 09:08:43;;;;;;;30.70;16.23;;;;;;;8.29;58.42;94037.41;2163711;47;20035;-73
2022/01/05 09:10:45;;;;;;;32.95;16.10;;;;;;;8.59;57.54;94041.22;2163365;47;20045;-71
2022/01/05 09:12:48;;;;;;;28.35;15.95;;;;;;;8.87;56.82;94036.47;2163892;47;20130;-72
2022/01/05 09:14:50;;;;;;;27.83;15.57;;;;;;;9.11;56.11;94034.81;2163241;46;20084;-72
2022/01/05 09:16:57;;;;;;;25.27;16.17;;;;;;;9.29;55.43;94032.81;2163819;47;20046;-72
2022/01/05 09:18:59;;;;;;;21.67;14.15;;;;;;;9.41;54.91;94028.03;2164008;47;20537;-72
2022/01/05 09:21:01;;;;;;;27.00;15.05;;;;;;;9.37;54.67;94026.75;2162390;47;20034;-73
2022/01/05 09:23:03;;;;;;;23.10;14.00;;;;;;;9.41;54.86;94018.41;2162714;39;20635;-72
2022/01/05 09:25:07;;;;;;;23.02;13.18;;;;;;;9.58;54.75;94019.16;2163479;54;20035;-72
2022/01/05 09:27:09;;;;;;;19.83;12.95;;;;;;;9.80;54.20;94022.00;2163262;54;20037;-72
2022/01/05 09:29:13;;;;;;;20.00;12.10;;;;;;;9.92;53.47;94012.00;2164004;47;20038;-73
2022/01/05 09:31:15;;;;;;;23.02;11.95;;;;;;;10.04;53.23;94007.97;2163673;47;20102;-70
2022/01/05 09:33:17;;;;;;;23.75;13.48;;;;;;;10.22;52.77;94015.56;2163220;47;20031;-73
2022/01/05 09:35:22;;;;;;;26.42;13.75;;;;;;;10.29;52.12;94016.53;2163959;47;20054;-73
2022/01/05 09:37:28;;;;;;;23.65;13.23;;;;;;;10.25;52.81;94009.97;2163718;47;20045;-73
2022/01/05 09:41:56;;;;;;;17.88;10.38;;;;;;;10.23;52.24;93997.06;2163613;47;20085;-72
2022/01/05 09:44:04;;;;;;;17.38;10.00;;;;;;;10.31;52.02;94004.09;2163198;47;20030;-71
2022/01/05 09:46:17;;;;;;;18.35;10.25;;;;;;;10.26;51.87;93988.06;2163475;54;20049;-72
2022/01/05 09:48:37;;;;;;;14.77;9.07;;;;;;;10.31;51.79;93992.81;2163112;47;20121;-71
2022/01/05 09:50:45;;;;;;;22.05;9.65;;;;;;;10.50;51.60;93979.25;2162815;54;20034;-72
2022/01/05 09:52:47;;;;;;;17.27;9.63;;;;;;;10.57;50.94;93990.63;2163131;54;20031;-71
2022/01/05 09:54:49;;;;;;;18.92;9.13;;;;;;;10.64;50.72;93978.44;2164012;39;20497;-73
2022/01/05 09:56:53;;;;;;;17.15;8.63;;;;;;;10.68;50.48;93978.09;2163048;54;20038;-73
2022/01/05 09:59:00;;;;;;;18.75;9.50;;;;;;;10.70;50.77;93969.06;2163900;47;20038;-72
2022/01/05 10:01:04;;;;;;;16.98;8.82;;;;;;;10.59;51.05;93975.56;2163039;47;20034;-70
2022/01/05 10:03:09;;;;;;;18.20;10.18;;;;;;;10.48;50.88;93962.88;2163331;54;20035;-70
2022/01/05 10:05:12;;;;;;;13.60;8.60;;;;;;;10.67;50.75;93969.44;2163004;47;20074;-72
2022/01/05 10:07:14;;;;;;;14.75;9.02;;;;;;;10.84;50.50;93970.06;2163577;54;20038;-71
2022/01/05 10:09:17;;;;;;;15.30;8.75;;;;;;;10.94;50.20;93961.97;2163579;47;20030;-72
2022/01/05 10:11:23;;;;;;;19.23;9.02;;;;;;;11.00;49.76;93963.88;2163330;47;20030;-73
2022/01/05 10:13:25;;;;;;;22.55;10.20;;;;;;;10.98;50.07;93961.44;2163500;47;20572;-72
2022/01/05 10:15:28;;;;;;;13.77;8.88;;;;;;;11.09;49.90;93957.56;2163588;47;20193;-72
2022/01/05 10:17:32;;;;;;;17.50;9.40;;;;;;;11.20;49.44;93948.44;2163707;54;20568;-72
2022/01/05 10:19:36;;;;;;;21.42;9.07;;;;;;;11.23;49.86;93946.28;2163583;47;20031;-73
2022/01/05 10:21:39;;;;;;;18.08;9.68;;;;;;;11.35;49.68;93946.59;2163289;47;20031;-72
2022/01/05 10:23:51;;;;;;;15.52;9.73;;;;;;;11.47;49.14;93946.97;2162861;47;20559;-73
2022/01/05 10:25:53;;;;;;;18.77;9.35;;;;;;;11.52;48.58;93933.31;2162254;47;20074;-71
2022/01/05 10:27:56;;;;;;;14.88;8.60;;;;;;;11.46;48.81;93945.34;2163703;54;20043;-72
2022/01/05 10:30:07;;;;;;;50.10;27.27;;;;;;;11.29;49.99;93928.97;2163754;47;20594;-70
2022/01/05 10:32:09;;;;;;;16.17;9.50;;;;;;;11.39;49.05;93932.13;2162894;54;20034;-72
2022/01/05 10:34:20;;;;;;;14.27;9.10;;;;;;;11.50;49.09;93917.75;2163208;47;20043;-74
2022/01/05 10:36:22;;;;;;;16.23;8.68;;;;;;;11.64;48.52;93929.22;2163717;47;20035;-74
2022/01/05 10:38:28;;;;;;;12.07;7.57;;;;;;;11.75;48.74;93920.88;2163443;47;20154;-72
2022/01/05 10:40:35;;;;;;;19.58;8.23;;;;;;;11.93;48.25;93928.34;2162451;54;20038;-73
2022/01/05 10:42:38;;;;;;;24.90;10.98;;;;;;;11.99;47.61;93917.09;2163429;47;20077;-73
2022/01/05 10:44:41;;;;;;;19.53;9.40;;;;;;;11.71;47.71;93910.94;2163020;54;20031;-70
2022/01/05 10:46:55;;;;;;;12.50;8.63;;;;;;;11.61;48.21;93904.16;2163250;54;20322;-72
2022/01/05 10:48:56;;;;;;;13.02;7.57;;;;;;;11.70;47.97;93904.84;2162927;47;20038;-73
2022/01/05 10:51:06;;;;;;;13.82;8.25;;;;;;;11.91;47.99;93905.91;2163485;47;20054;-72
2022/01/05 10:53:09;;;;;;;12.40;7.28;;;;;;;11.95;47.31;93902.72;2163282;47;20038;-72
2022/01/05 10:55:17;;;;;;;17.38;8.27;;;;;;;12.11;47.18;93895.59;2162458;54;20082;-71
2022/01/05 10:57:20;;;;;;;17.23;9.05;;;;;;;12.22;47.08;93895.13;2162715;54;20034;-70
2022/01/05 10:59:34;;;;;;;20.73;9.57;;;;;;;12.15;46.95;93887.16;2164230;54;20030;-73
2022/01/05 11:01:38;;;;;;;12.05;6.95;;;;;;;11.78;47.11;93894.25;2164194;54;20163;-72
2022/01/05 11:03:41;;;;;;;14.93;8.10;;;;;;;11.71;47.98;93887.31;2164147;54;20054;-72
2022/01/05 11:05:43;;;;;;;15.07;8.52;;;;;;;11.91;47.73;93885.72;2164099;54;20042;-71
2022/01/05 11:07:47;;;;;;;12.77;8.10;;;;;;;12.07;46.97;93884.69;2164124;31;20524;-70
2022/01/05 11:10:09;;;;;;;13.95;8.07;;;;;;;12.04;47.49;93887.66;2163744;47;20034;-71
2022/01/05 11:12:11;;;;;;;16.05;8.15;;;;;;;12.10;47.20;93879.03;2163795;47;20038;-73
2022/01/05 11:14:14;;;;;;;11.20;8.15;;;;;;;12.18;47.02;93878.91;2163942;47;20568;-73
2022/01/05 11:16:25;;;;;;;11.40;7.93;;;;;;;12.25;46.79;93869.28;2163972;47;20564;-73
2022/01/05 11:18:31;;;;;;;18.00;7.50;;;;;;;12.28;46.81;93863.66;2164125;47;20053;-72
2022/01/05 11:20:32;;;;;;;13.38;7.78;;;;;;;12.30;46.74;93868.69;2163965;47;20030;-71
2022/01/05 11:22:34;;;;;;;11.68;7.32;;;;;;;12.29;46.74;93865.28;2162606;47;20054;-73
2022/01/05 11:24:47;;;;;;;15.52;7.88;;;;;;;12.45;46.71;93855.47;2163120;47;20052;-72
2022/01/05 11:26:50;;;;;;;19.73;7.80;;;;;;;12.62;46.69;93848.94;2163492;54;20031;-72
2022/01/05 11:28:52;;;;;;;14.50;7.47;;;;;;;12.56;46.40;93851.50;2163501;47;20037;-72
2022/01/05 11:30:56;;;;;;;12.63;6.88;;;;;;;12.61;46.66;93860.47;2164007;47;20038;-71
2022/01/05 11:32:59;;;;;;;14.45;7.40;;;;;;;12.61;46.09;93839.44;2164477;39;20546;-69
2022/01/05 11:35:05;;;;;;;18.75;8.27;;;;;;;12.67;46.17;93841.31;2163113;54;20039;-70
2022/01/05 11:37:10;;;;;;;12.75;7.85;;;;;;;12.76;46.05;93835.91;2163122;47;20035;-72
2022/01/05 11:39:12;;;;;;;14.63;7.15;;;;;;;12.86;46.20;93833.72;2164151;54;20030;-73
2022/01/05 11:41:15;;;;;;;16.58;7.70;;;;;;;12.83;45.98;93831.47;2163337;47;20757;-70
2022/01/05 11:43:39;;;;;;;12.55;6.75;;;;;;;12.96;45.90;93833.38;2163383;54;20030;-73
2022/01/05 11:45:46;;;;;;;12.73;7.55;;;;;;;13.04;45.82;93834.00;2163190;47;20522;-73
2022/01/05 11:47:49;;;;;;;14.05;7.88;;;;;;;12.93;45.95;93823.22;2163176;47;20141;-72
2022/01/05 11:49:56;;;;;;;16.75;7.65;;;;;;;12.91;46.05;93821.63;2163685;39;20453;-72
2022/01/05 11:51:59;;;;;;;12.75;6.75;;;;;;;12.99;45.67;93820.66;2163400;47;20561;-73
2022/01/05 11:54:16;;;;;;;13.38;7.63;;;;;;;13.02;45.46;93820.25;2163279;47;20030;-70
2022/01/05 11:56:22;;;;;;;20.02;8.13;;;;;;;13.03;45.39;93811.34;2163860;54;20131;-74
2022/01/05 11:58:26;;;;;;;17.23;8.30;;;;;;;12.95;45.84;93798.38;2163852;47;20078;-72
2022/01/05 12:00:28;;;;;;;15.85;7.80;;;;;;;13.05;45.55;93803.28;2163270;54;20038;-74
2022/01/05 12:02:39;;;;;;;11.20;7.65;;;;;;;13.07;45.54;93786.28;2164392;39;20473;-73
2022/01/05 12:04:56;;;;;;;16.83;7.43;;;;;;;13.21;45.32;93808.19;2163307;47;20231;-73
2022/01/05 12:07:02;;;;;;;13.40;7.07;;;;;;;13.28;45.19;93792.44;2163983;46;20038;-72
2022/01/05 12:09:17;;;;;;;14.45;7.72;;;;;;;13.27;45.13;93796.06;2164187;39;20273;-70
2022/01/05 12:11:41;;;;;;;14.15;6.55;;;;;;;13.30;45.03;93799.16;2163862;47;20030;-71
2022/01/05 12:13:43;;;;;;;14.10;7.22;;;;;;;13.32;45.19;93785.81;2164401;39;20451;-73
2022/01/05 12:15:51;;;;;;;21.10;7.20;;;;;;;13.39;45.06;93793.72;2163454;54;20046;-72
2022/01/05 12:18:02;;;;;;;13.80;7.38;;;;;;;13.40;45.31;93790.06;2164033;47;20026;-71
2022/01/05 12:20:06;;;;;;;15.02;6.75;;;;;;;13.41;45.03;93797.75;2164288;39;20432;-71
2022/01/05 12:22:18;;;;;;;9.50;6.22;;;;;;;13.40;45.28;93796.16;2164275;39;20675;-73
2022/01/05 12:24:20;;;;;;;11.00;6.38;;;;;;;13.42;44.88;93788.88;2162046;47;20031;-73
2022/01/05 12:26:22;;;;;;;12.00;6.55;;;;;;;13.44;44.89;93786.03;2163461;47;20031;-72
2022/01/05 12:28:29;;;;;;;11.85;6.47;;;;;;;13.43;45.09;93784.41;2163435;46;20083;-72
2022/01/05 12:30:35;;;;;;;12.88;7.18;;;;;;;13.51;45.05;93776.34;2163930;47;20046;-71
2022/01/05 12:32:38;;;;;;;15.77;6.72;;;;;;;13.46;44.93;93768.22;2163385;46;20034;-73
2022/01/05 12:34:58;;;;;;;14.30;7.30;;;;;;;13.42;45.26;93762.56;2163348;54;20042;-71
2022/01/05 12:37:00;;;;;;;12.80;6.97;;;;;;;13.31;45.35;93771.84;2164124;54;20030;-71
2022/01/05 12:39:09;;;;;;;12.23;6.47;;;;;;;13.19;45.76;93768.13;2163170;47;20038;-72
2022/01/05 12:41:31;;;;;;;11.95;6.55;;;;;;;13.20;45.88;93759.22;2163722;46;20034;-72
2022/01/05 12:43:35;;;;;;;15.93;6.97;;;;;;;13.15;45.71;93760.84;2164009;47;20557;-72
2022/01/05 12:45:43;;;;;;;12.77;7.15;;;;;;;13.20;45.69;93761.84;2163676;47;20038;-72
2022/01/05 12:47:45;;;;;;;11.50;6.25;;;;;;;13.19;45.56;93752.34;2164017;54;20035;-74
2022/01/05 12:49:46;;;;;;;10.02;6.18;;;;;;;13.26;45.70;93744.47;2163965;47;20038;-72
2022/01/05 12:51:55;;;;;;;11.38;6.63;;;;;;;13.29;45.70;93765.16;2163873;47;20037;-74
2022/01/05 12:54:08;;;;;;;9.02;6.25;;;;;;;13.26;45.98;93758.44;2163020;51;20155;-72
2022/01/05 12:56:10;;;;;;;17.92;7.75;;;;;;;13.13;46.24;93745.25;2163545;47;20099;-72
2022/01/05 12:58:12;;;;;;;14.07;6.90;;;;;;;13.09;46.41;93752.72;2163960;54;20030;-72
2022/01/05 13:00:14;;;;;;;13.27;7.00;;;;;;;13.05;46.63;93751.47;2163882;54;20038;-72
2022/01/05 13:02:23;;;;;;;11.52;6.68;;;;;;;13.08;46.55;93766.88;2163204;39;20400;-70
2022/01/05 13:04:26;;;;;;;11.38;6.80;;;;;;;13.06;46.54;93753.13;2163246;51;20030;-72
2022/01/05 13:06:30;;;;;;;9.32;5.63;;;;;;;13.08;46.47;93758.19;2163963;47;20592;-70
2022/01/05 13:08:32;;;;;;;10.38;6.00;;;;;;;13.03;46.35;93753.50;2163516;47;20053;-73
2022/01/05 13:10:41;;;;;;;15.90;6.97;;;;;;;13.06;46.83;93758.38;2163475;47;20037;-72
2022/01/05 13:12:43;;;;;;;15.07;7.25;;;;;;;12.94;46.92;93754.69;2163700;47;20035;-71
2022/01/05 13:14:53;;;;;;;13.57;7.32;;;;;;;13.04;46.61;93765.66;2163559;47;20037;-71
2022/01/05 13:17:08;;;;;;;14.65;7.30;;;;;;;13.02;46.49;93767.66;2163496;54;20030;-71
2022/01/05 13:19:33;;;;;;;17.92;6.85;;;;;;;12.95;46.75;93763.38;2163826;39;20698;-72
2022/01/05 13:21:48;;;;;;;13.77;7.82;;;;;;;12.97;46.56;93770.09;2163734;47;20038;-74
2022/01/05 13:23:55;;;;;;;11.80;7.50;;;;;;;13.02;46.51;93767.66;2163724;51;20086;-73
2022/01/05 13:26:08;;;;;;;13.90;8.50;;;;;;;13.00;46.43;93774.94;2162266;47;20037;-73
2022/01/05 13:28:10;;;;;;;14.55;8.07;;;;;;;12.91;46.57;93766.41;2163237;54;20038;-72
2022/01/05 13:30:18;;;;;;;14.45;8.40;;;;;;;12.95;46.48;93781.78;2163191;47;20576;-72
2022/01/05 13:32:22;;;;;;;21.48;8.38;;;;;;;12.87;46.52;93777.53;2163601;54;20046;-73
2022/01/05 13:34:35;;;;;;;16.70;8.65;;;;;;;12.82;46.82;93766.75;2163960;47;20043;-72
2022/01/05 13:36:50;;;;;;;17.67;9.50;;;;;;;12.78;46.80;93782.13;2163186;54;20030;-73
2022/01/05 13:38:52;;;;;;;17.58;8.57;;;;;;;12.76;46.74;93776.25;2163769;47;20038;-71
2022/01/05 13:40:59;;;;;;;20.42;10.75;;;;;;;12.78;46.78;93769.00;2164120;31;20593;-71
2022/01/05 13:43:03;;;;;;;16.75;9.63;;;;;;;12.83;46.82;93773.66;2163889;47;20023;-71
2022/01/05 13:45:09;;;;;;;20.33;9.75;;;;;;;12.75;47.11;93758.03;2163525;47;20037;-71
2022/01/05 13:47:13;;;;;;;22.48;10.55;;;;;;;12.53;47.27;93738.94;2162930;54;20038;-72
2022/01/05 13:49:15;;;;;;;17.73;9.35;;;;;;;12.38;47.94;93767.97;2163870;54;20034;-71
2022/01/05 13:51:17;;;;;;;16.40;9.63;;;;;;;12.37;48.20;93753.19;2163714;47;20039;-70
2022/01/05 13:53:25;;;;;;;14.82;8.90;;;;;;;12.37;48.16;93761.06;2163607;46;20039;-71
2022/01/05 13:55:29;;;;;;;24.95;9.55;;;;;;;12.22;48.61;93751.50;2163478;47;20099;-72
2022/01/05 13:57:35;;;;;;;18.35;9.73;;;;;;;12.26;48.58;93751.91;2163792;47;20070;-73
2022/01/05 13:59:39;;;;;;;14.35;8.57;;;;;;;12.27;48.32;93756.19;2163775;47;20034;-71
2022/01/05 14:01:44;;;;;;;17.48;9.20;;;;;;;12.28;48.55;93742.03;2162792;47;20148;-73
2022/01/05 14:03:53;;;;;;;19.95;9.35;;;;;;;12.16;48.90;93731.25;2163438;54;20042;-71
2022/01/05 14:05:55;;;;;;;16.35;8.90;;;;;;;12.18;48.95;93720.56;2163917;39;20496;-72
2022/01/05 14:08:02;;;;;;;21.45;10.15;;;;;;;12.12;48.86;93730.03;2163590;47;20034;-74
2022/01/05 14:10:09;;;;;;;15.35;8.70;;;;;;;12.12;49.16;93730.03;2163315;46;20038;-72
2022/01/05 14:12:30;;;;;;;14.45;8.77;;;;;;;12.04;49.23;93732.78;2163828;39;20548;-73
2022/01/05 14:14:35;;;;;;;17.10;8.65;;;;;;;12.02;49.21;93735.63;2162899;54;20038;-72
2022/01/05 14:16:39;;;;;;;19.17;8.45;;;;;;;11.99;49.35;93740.44;2162854;54;20557;-72
2022/01/05 14:18:45;;;;;;;18.23;8.68;;;;;;;12.00;49.77;93735.00;2163503;54;20030;-72
2022/01/05 14:20:49;;;;;;;19.33;8.95;;;;;;;11.96;49.85;93723.25;2163415;54;20030;-73
2022/01/05 14:23:07;;;;;;;15.98;8.93;;;;;;;11.94;49.74;93730.50;2163563;47;20038;-73
2022/01/05 14:25:10;;;;;;;19.95;8.40;;;;;;;11.92;49.81;93729.09;2162426;54;20035;-72
2022/01/05 14:27:21;;;;;;;18.05;9.75;;;;;;;11.85;50.10;93708.81;2162626;47;20030;-71
2022/01/05 14:29:27;;;;;;;15.57;8.35;;;;;;;11.84;50.32;93727.38;2164087;39;20429;-72
2022/01/05 14:31:37;;;;;;;13.88;8.50;;;;;;;11.77;50.29;93705.53;2162858;47;20039;-71
2022/01/05 14:33:41;;;;;;;20.10;9.65;;;;;;;11.76;50.38;93715.19;2164121;47;20153;-72
2022/01/05 14:35:48;;;;;;;;;;;;;;;11.79;50.42;93725.31;2164361;54;20035;-72
2022/01/05 14:38:01;;;;;;;20.35;7.90;;;;;;;11.76;50.53;93730.13;2163999;47;19954;-71
2022/01/05 14:40:03;;;;;;;15.30;8.45;;;;;;;11.72;50.47;93729.69;2164287;39;20579;-73
2022/01/05 14:42:08;;;;;;;19.25;8.63;;;;;;;11.62;50.72;93727.41;2164225;47;20030;-72
2022/01/05 14:44:23;;;;;;;15.45;8.63;;;;;;;11.61;50.98;93724.97;2164426;46;20037;-71
2022/01/05 14:46:27;;;;;;;16.25;8.55;;;;;;;11.58;50.86;93739.28;2163362;47;20086;-72
2022/01/05 14:48:29;;;;;;;;;;;;;;;11.44;51.30;93727.88;2164497;47;20640;-72
2022/01/05 14:50:31;;;;;;;17.60;8.73;;;;;;;11.38;51.51;93727.78;2164059;47;20465;-71
2022/01/05 14:52:34;;;;;;;22.40;9.35;;;;;;;11.14;52.15;93724.56;2163437;47;20037;-70
2022/01/05 14:54:37;;;;;;;17.08;9.30;;;;;;;11.15;52.28;93728.78;2163779;46;20030;-72
2022/01/05 14:56:41;;;;;;;23.48;10.02;;;;;;;11.14;52.15;93721.94;2164299;47;20082;-71
2022/01/05 14:58:43;;;;;;;17.40;9.20;;;;;;;11.12;52.33;93718.69;2164762;39;20460;-71
2022/01/05 15:00:45;;;;;;;21.75;9.45;;;;;;;11.12;52.25;93723.94;2164045;47;20035;-73
2022/01/05 15:02:51;;;;;;;16.67;9.45;;;;;;;11.13;52.19;93735.22;2163552;54;20030;-70
2022/01/05 15:04:53;;;;;;;20.35;9.50;;;;;;;11.16;52.21;93738.25;2163974;39;20441;-70
2022/01/05 15:06:56;;;;;;;16.95;9.98;;;;;;;11.20;52.12;93746.56;2164127;47;20037;-72
2022/01/05 15:08:58;;;;;;;25.58;10.00;;;;;;;11.15;52.18;93748.94;2163980;47;20031;-72
2022/01/05 15:11:00;;;;;;;24.02;9.48;;;;;;;11.12;52.29;93744.91;2163772;47;20052;-71
2022/01/05 15:13:02;;;;;;;22.25;9.50;;;;;;;11.11;52.30;93732.75;2164205;54;20030;-73
2022/01/05 15:15:05;;;;;;;23.40;10.98;;;;;;;11.05;52.58;93734.31;2163395;47;20037;-72
2022/01/05 15:17:07;;;;;;;20.92;9.38;;;;;;;11.11;52.68;93753.72;2163984;47;20827;-73
2022/01/05 15:19:09;;;;;;;23.70;11.85;;;;;;;11.09;52.85;93752.31;2164085;47;20069;-71
2022/01/05 15:21:11;;;;;;;20.83;10.52;;;;;;;11.06;52.44;93738.56;2164118;54;20031;-71
2022/01/05 15:23:13;;;;;;;19.52;11.15;;;;;;;11.06;52.50;93756.91;2163272;47;20030;-71
2022/01/05 15:25:16;;;;;;;21.85;10.65;;;;;;;11.11;52.40;93752.94;2163884;51;20039;-73
2022/01/05 15:27:17;;;;;;;14.18;10.70;;;;;;;11.04;52.38;93732.69;2163528;39;20111;-72
2022/01/05 15:29:19;;;;;;;18.05;10.40;;;;;;;11.02;52.81;93749.63;2164009;47;20030;-74
2022/01/05 15:31:21;;;;;;;22.20;11.88;;;;;;;10.98;52.90;93748.34;2164532;39;20429;-74
2022/01/05 15:33:23;;;;;;;26.17;12.95;;;;;;;10.91;53.03;93748.28;2164008;47;20831;-71
2022/01/05 15:35:25;;;;;;;29.05;12.45;;;;;;;10.91;53.23;93752.72;2164115;47;20030;-72
2022/01/05 15:37:27;;;;;;;26.40;12.45;;;;;;;10.86;53.32;93750.63;2163367;54;20592;-72
2022/01/05 15:39:29;;;;;;;25.48;13.32;;;;;;;10.80;53.36;93748.75;2163926;47;20166;-71
2022/01/05 15:41:31;;;;;;;41.25;17.23;;;;;;;10.69;53.71;93743.97;2164331;39;20448;-72
2022/01/05 15:43:34;;;;;;;58.97;35.55;;;;;;;10.53;54.42;93735.31;2163614;47;20091;-70
2022/01/05 15:45:36;;;;;;;37.83;18.15;;;;;;;10.47;54.75;93751.75;2164068;47;20030;-72
2022/01/05 15:47:38;;;;;;;31.73;15.57;;;;;;;10.51;55.06;93750.41;2164053;47;20031;-73
2022/01/05 15:49:42;;;;;;;35.88;15.13;;;;;;;10.54;54.67;93751.84;2164244;47;20142;-72
2022/01/05 15:51:47;;;;;;;29.63;15.75;;;;;;;10.52;54.37;93748.59;2164889;39;20520;-72
2022/01/05 15:53:49;;;;;;;31.88;15.20;;;;;;;10.45;54.51;93738.03;2163990;47;20082;-74
2022/01/05 15:55:58;;;;;;;45.10;21.13;;;;;;;10.44;55.02;93736.44;2163763;47;20037;-72
2022/01/05 15:58:05;;;;;;;35.28;17.83;;;;;;;10.45;55.22;93743.28;2164171;54;20030;-73
2022/01/05 16:02:29;;;;;;;36.88;19.23;;;;;;;10.29;55.53;93736.44;2163170;47;20035;-73
2022/01/05 16:04:33;;;;;;;45.90;20.92;;;;;;;10.19;55.65;93726.19;2164177;39;20428;-72
2022/01/05 16:06:40;;;;;;;40.72;17.40;;;;;;;10.29;55.33;93735.59;2164239;47;20038;-73
2022/01/05 16:08:42;;;;;;;29.08;16.63;;;;;;;10.27;54.95;93727.09;2163241;47;20082;-73
2022/01/05 16:10:44;;;;;;;41.03;18.98;;;;;;;10.31;54.98;93726.59;2163684;47;20038;-71
2022/01/05 16:12:46;;;;;;;37.30;19.17;;;;;;;10.33;54.63;93727.22;2164216;47;20031;-72
2022/01/05 16:14:48;;;;;;;36.20;17.85;;;;;;;10.37;54.84;93723.25;2163899;54;20037;-72
2022/01/05 16:16:50;;;;;;;30.67;17.55;;;;;;;10.42;54.77;93733.16;2163958;46;20045;-71
2022/01/05 16:18:53;;;;;;;54.50;25.08;;;;;;;10.23;55.17;93735.31;2164422;39;20632;-73
2022/01/05 16:20:55;;;;;;;43.90;20.97;;;;;;;10.01;55.97;93723.13;2163838;54;20049;-73
2022/01/05 16:22:57;;;;;;;34.65;19.55;;;;;;;9.99;56.21;93736.38;2163892;47;20030;-73
2022/01/05 16:24:59;;;;;;;72.53;36.55;;;;;;;9.96;56.10;93734.13;2163419;47;20034;-72
2022/01/05 16:27:07;;;;;;;57.10;27.70;;;;;;;9.97;55.85;93729.69;2163428;54;20031;-70
2022/01/05 16:29:09;;;;;;;49.92;24.88;;;;;;;9.95;56.11;93737.72;2163044;47;20038;-71
2022/01/05 16:31:11;;;;;;;56.25;27.13;;;;;;;9.99;55.76;93740.81;2163523;46;20030;-72
2022/01/05 16:33:13;;;;;;;55.65;31.65;;;;;;;9.99;55.90;93738.19;2163926;31;20584;-72
2022/01/05 16:35:15;;;;;;;70.15;40.55;;;;;;;9.83;56.34;93737.34;2164396;39;20429;-73
2022/01/05 16:37:18;;;;;;;53.03;29.70;;;;;;;9.85;56.57;93750.25;2163161;54;20565;-71
2022/01/05 16:39:20;;;;;;;50.17;29.42;;;;;;;9.85;56.33;93742.38;2163896;47;20034;-73
2022/01/05 16:41:22;;;;;;;48.33;27.35;;;;;;;9.64;56.49;93736.06;2163857;54;20030;-73
2022/01/05 16:43:24;;;;;;;57.30;30.05;;;;;;;9.70;57.15;93741.56;2163970;47;20038;-74
2022/01/05 16:45:26;;;;;;;47.97;27.48;;;;;;;9.71;57.05;93744.00;2163842;47;20158;-73
2022/01/05 16:47:28;;;;;;;53.88;26.58;;;;;;;9.81;56.91;93741.94;2163901;54;20037;-72
2022/01/05 16:49:52;;;;;;;51.83;25.83;;;;;;;9.86;56.64;93748.47;2163799;47;20051;-72
2022/01/05 16:51:53;;;;;;;57.78;25.63;;;;;;;9.81;56.47;93747.19;2164257;39;20503;-72
2022/01/05 16:54:01;;;;;;;52.00;27.40;;;;;;;9.89;56.58;93754.13;2163810;47;21100;-72
2022/01/05 16:56:04;;;;;;;42.60;25.02;;;;;;;9.90;56.37;93734.03;2163118;47;20035;-72
2022/01/05 17:00:27;;;;;;;46.53;22.73;;;;;;;9.80;57.12;93742.13;2164034;54;20042;-73
2022/01/05 17:02:30;;;;;;;55.72;26.17;;;;;;;9.67;57.47;93741.91;2163892;47;20037;-72
2022/01/05 17:04:32;;;;;;;49.58;25.67;;;;;;;9.71;57.36;93748.44;2164300;39;20465;-73
2022/01/05 17:06:35;;;;;;;54.42;27.83;;;;;;;9.71;57.18;93758.88;2163913;47;20030;-72
2022/01/05 17:08:39;;;;;;;51.63;25.25;;;;;;;9.68;57.18;93751.38;2163758;54;20038;-71
2022/01/05 17:11:00;;;;;;;48.38;24.95;;;;;;;9.76;57.41;93749.50;2163208;39;20579;-72
2022/01/05 17:13:03;;;;;;;47.05;23.88;;;;;;;9.75;57.31;93734.81;2163851;47;20038;-71
2022/01/05 17:15:06;;;;;;;73.53;33.60;;;;;;;9.78;57.54;93757.97;2163227;47;20054;-73
2022/01/05 17:17:09;;;;;;;47.10;23.77;;;;;;;9.75;57.16;93770.63;2163606;54;20030;-73
2022/01/05 17:19:12;;;;;;;46.50;25.08;;;;;;;9.76;57.25;93753.94;2163835;39;20539;-72
2022/01/05 17:21:14;;;;;;;331.75;120.50;;;;;;;9.82;57.74;93758.44;2163820;54;20030;-73
2022/01/05 17:23:17;;;;;;;58.75;28.15;;;;;;;9.84;57.32;93757.28;2163739;47;20074;-72
2022/01/05 17:25:18;;;;;;;57.63;26.70;;;;;;;9.84;57.14;93746.81;2162816;54;20055;-71
2022/01/05 17:27:20;;;;;;;53.30;26.75;;;;;;;9.71;57.58;93746.63;2163869;47;20030;-72
2022/01/05 17:29:22;;;;;;;52.67;26.55;;;;;;;9.68;57.78;93759.22;2162774;47;20051;-72
2022/01/05 17:31:26;;;;;;;48.75;26.73;;;;;;;9.70;58.26;93750.22;2162835;54;20550;-73
2022/01/05 17:33:28;;;;;;;58.08;28.13;;;;;;;9.71;58.23;93749.22;2163867;47;20034;-74
2022/01/05 17:35:31;;;;;;;51.78;27.23;;;;;;;9.72;58.10;93737.78;2163810;47;20038;-72
2022/01/05 17:37:33;;;;;;;55.03;26.50;;;;;;;9.71;57.77;93740.56;2164063;39;20372;-72
2022/01/05 17:39:35;;;;;;;64.95;27.30;;;;;;;9.77;57.79;93766.84;2163348;47;20295;-74
2022/01/05 17:41:38;;;;;;;98.78;43.92;;;;;;;9.76;57.93;93754.72;2163761;47;20030;-74
2022/01/05 17:43:40;;;;;;;74.70;35.72;;;;;;;9.63;58.05;93750.09;2163752;47;20034;-74
2022/01/05 17:45:44;;;;;;;83.22;31.90;;;;;;;9.53;58.68;93753.94;2163615;47;20037;-73
2022/01/05 17:47:52;;;;;;;68.75;29.63;;;;;;;9.53;58.60;93761.78;2163863;47;20573;-73
2022/01/05 17:49:54;;;;;;;62.13;31.02;;;;;;;9.57;58.32;93768.28;2163960;54;20834;-74
2022/01/05 17:51:56;;;;;;;56.15;28.42;;;;;;;9.56;58.31;93769.31;2164024;47;20803;-73
2022/01/05 17:53:58;;;;;;;63.15;28.42;;;;;;;9.62;58.11;93773.84;2163719;47;20038;-73
2022/01/05 17:56:00;;;;;;;64.75;30.58;;;;;;;9.63;58.48;93770.22;2163654;47;20039;-72
2022/01/05 17:58:02;;;;;;;60.58;29.27;;;;;;;9.63;58.82;93767.59;2163765;47;20030;-73
2022/01/05 18:00:07;;;;;;;79.55;31.42;;;;;;;9.53;59.12;93767.03;2163887;54;20125;-72
2022/01/05 18:02:09;;;;;;;69.13;32.05;;;;;;;9.53;58.91;93775.69;2163568;47;20042;-71